sensor_id;sensor_type;location;lat;lon;timestamp;pressure;altitude;pressure_sealevel;temperature
45976;BMP280;31696;42.668;23.322;2023-05-13T00:01:44;95051.66;;;9.48
45976;BMP280;31696;42.668;23.322;2023-05-13T00:03:44;95047.41;;;9.58
45976;BMP280;31696;42.668;23.322;2023-05-13T00:05:45;95053.50;;;9.61
45976;BMP280;31696;42.668;23.322;2023-05-13T00:07:46;95053.63;;;9.55
45976;BMP280;31696;42.668;23.322;2023-05-13T00:09:46;95054.72;;;9.60
45976;BMP280;31696;42.668;23.322;2023-05-13T00:11:46;95055.84;;;9.72
45976;BMP280;31696;42.668;23.322;2023-05-13T00:13:47;95056.94;;;9.35
45976;BMP280;31696;42.668;23.322;2023-05-13T00:15:47;95063.19;;;9.60
45976;BMP280;31696;42.668;23.322;2023-05-13T00:17:47;95065.44;;;9.43
45976;BMP280;31696;42.668;23.322;2023-05-13T00:19:48;95064.94;;;9.44
45976;BMP280;31696;42.668;23.322;2023-05-13T00:21:48;95077.03;;;9.63
45976;BMP280;31696;42.668;23.322;2023-05-13T00:23:48;95078.69;;;9.53
45976;BMP280;31696;42.668;23.322;2023-05-13T00:25:49;95087.78;;;9.87
45976;BMP280;31696;42.668;23.322;2023-05-13T00:27:49;95076.31;;;9.83
45976;BMP280;31696;42.668;23.322;2023-05-13T00:29:50;95081.44;;;9.55
45976;BMP280;31696;42.668;23.322;2023-05-13T00:31:51;95086.13;;;9.56
45976;BMP280;31696;42.668;23.322;2023-05-13T00:33:51;95090.84;;;9.78
45976;BMP280;31696;42.668;23.322;2023-05-13T00:35:52;95095.25;;;9.50
45976;BMP280;31696;42.668;23.322;2023-05-13T00:37:52;95087.47;;;9.50
45976;BMP280;31696;42.668;23.322;2023-05-13T00:39:53;95090.25;;;9.52
45976;BMP280;31696;42.668;23.322;2023-05-13T00:41:53;95089.88;;;9.48
45976;BMP280;31696;42.668;23.322;2023-05-13T00:43:54;95077.88;;;9.58
45976;BMP280;31696;42.668;23.322;2023-05-13T00:45:57;95091.00;;;9.60
45976;BMP280;31696;42.668;23.322;2023-05-13T00:47:58;95086.75;;;9.49
45976;BMP280;31696;42.668;23.322;2023-05-13T00:49:59;95096.44;;;9.69
45976;BMP280;31696;42.668;23.322;2023-05-13T00:52:00;95101.34;;;9.52
45976;BMP280;31696;42.668;23.322;2023-05-13T00:54:00;95095.50;;;9.59
45976;BMP280;31696;42.668;23.322;2023-05-13T00:56:01;95100.19;;;9.61
45976;BMP280;31696;42.668;23.322;2023-05-13T00:58:01;95096.25;;;9.67
45976;BMP280;31696;42.668;23.322;2023-05-13T01:00:02;95104.28;;;9.77
45976;BMP280;31696;42.668;23.322;2023-05-13T01:06:22;95089.63;;;10.08
45976;BMP280;31696;42.668;23.322;2023-05-13T01:08:36;95100.78;;;9.95
45976;BMP280;31696;42.668;23.322;2023-05-13T01:10:44;95103.09;;;10.06
45976;BMP280;31696;42.668;23.322;2023-05-13T01:12:45;95099.72;;;9.90
45976;BMP280;31696;42.668;23.322;2023-05-13T01:14:48;95115.25;;;10.11
45976;BMP280;31696;42.668;23.322;2023-05-13T01:16:52;95113.13;;;9.81
45976;BMP280;31696;42.668;23.322;2023-05-13T01:18:58;95117.88;;;9.49
45976;BMP280;31696;42.668;23.322;2023-05-13T01:21:00;95120.66;;;9.51
45976;BMP280;31696;42.668;23.322;2023-05-13T01:23:02;95125.91;;;9.59
45976;BMP280;31696;42.668;23.322;2023-05-13T01:25:03;95121.63;;;9.61
45976;BMP280;31696;42.668;23.322;2023-05-13T01:27:03;95134.06;;;9.63
45976;BMP280;31696;42.668;23.322;2023-05-13T01:29:04;95135.97;;;9.62
45976;BMP280;31696;42.668;23.322;2023-05-13T01:31:05;95140.31;;;9.46
45976;BMP280;31696;42.668;23.322;2023-05-13T01:33:05;95136.97;;;9.59
45976;BMP280;31696;42.668;23.322;2023-05-13T01:35:06;95139.38;;;9.57
45976;BMP280;31696;42.668;23.322;2023-05-13T01:37:10;95131.69;;;9.31
45976;BMP280;31696;42.668;23.322;2023-05-13T01:39:11;95129.63;;;9.50
45976;BMP280;31696;42.668;23.322;2023-05-13T01:41:12;95115.84;;;9.55
45976;BMP280;31696;42.668;23.322;2023-05-13T01:43:13;95127.63;;;9.56
45976;BMP280;31696;42.668;23.322;2023-05-13T01:45:13;95124.78;;;9.67
45976;BMP280;31696;42.668;23.322;2023-05-13T01:47:14;95129.63;;;9.50
45976;BMP280;31696;42.668;23.322;2023-05-13T01:49:15;95133.72;;;9.45
45976;BMP280;31696;42.668;23.322;2023-05-13T01:51:16;95130.34;;;9.51
45976;BMP280;31696;42.668;23.322;2023-05-13T01:53:17;95127.66;;;9.43
45976;BMP280;31696;42.668;23.322;2023-05-13T01:55:18;95115.09;;;9.47
45976;BMP280;31696;42.668;23.322;2023-05-13T01:57:20;95118.69;;;9.44
45976;BMP280;31696;42.668;23.322;2023-05-13T01:59:20;95120.03;;;9.58
45976;BMP280;31696;42.668;23.322;2023-05-13T02:01:21;95118.69;;;9.44
45976;BMP280;31696;42.668;23.322;2023-05-13T02:03:21;95110.47;;;9.53
45976;BMP280;31696;42.668;23.322;2023-05-13T02:05:22;95107.53;;;9.36
45976;BMP280;31696;42.668;23.322;2023-05-13T02:07:23;95113.34;;;9.42
45976;BMP280;31696;42.668;23.322;2023-05-13T02:09:24;95117.31;;;9.43
45976;BMP280;31696;42.668;23.322;2023-05-13T02:11:25;95121.94;;;9.24
45976;BMP280;31696;42.668;23.322;2023-05-13T02:13:25;95117.47;;;9.45
45976;BMP280;31696;42.668;23.322;2023-05-13T02:15:25;95127.47;;;9.41
45976;BMP280;31696;42.668;23.322;2023-05-13T02:17:26;95122.53;;;9.30
45976;BMP280;31696;42.668;23.322;2023-05-13T02:19:27;95122.41;;;9.35
45976;BMP280;31696;42.668;23.322;2023-05-13T02:21:27;95115.72;;;9.40
45976;BMP280;31696;42.668;23.322;2023-05-13T02:23:28;95126.38;;;9.36
45976;BMP280;31696;42.668;23.322;2023-05-13T02:25:29;95128.72;;;9.27
45976;BMP280;31696;42.668;23.322;2023-05-13T02:27:29;95123.09;;;8.89
45976;BMP280;31696;42.668;23.322;2023-05-13T02:29:29;95135.22;;;9.20
45976;BMP280;31696;42.668;23.322;2023-05-13T02:31:30;95142.19;;;9.25
45976;BMP280;31696;42.668;23.322;2023-05-13T02:33:30;95140.66;;;9.30
45976;BMP280;31696;42.668;23.322;2023-05-13T02:35:31;95136.06;;;9.36
45976;BMP280;31696;42.668;23.322;2023-05-13T02:37:33;95139.66;;;9.33
45976;BMP280;31696;42.668;23.322;2023-05-13T02:39:35;95139.31;;;9.16
45976;BMP280;31696;42.668;23.322;2023-05-13T02:41:36;95141.25;;;9.36
45976;BMP280;31696;42.668;23.322;2023-05-13T02:43:36;95140.88;;;9.32
45976;BMP280;31696;42.668;23.322;2023-05-13T02:45:39;95140.19;;;9.18
45976;BMP280;31696;42.668;23.322;2023-05-13T02:47:40;95142.19;;;9.25
45976;BMP280;31696;42.668;23.322;2023-05-13T02:49:41;95142.25;;;9.33
45976;BMP280;31696;42.668;23.322;2023-05-13T02:51:41;95157.63;;;9.18
45976;BMP280;31696;42.668;23.322;2023-05-13T02:53:42;95163.22;;;9.22
45976;BMP280;31696;42.668;23.322;2023-05-13T02:55:43;95154.44;;;9.25
45976;BMP280;31696;42.668;23.322;2023-05-13T02:57:43;95157.41;;;9.29
45976;BMP280;31696;42.668;23.322;2023-05-13T02:59:44;95160.22;;;9.31
45976;BMP280;31696;42.668;23.322;2023-05-13T03:01:44;95163.22;;;9.22
45976;BMP280;31696;42.668;23.322;2023-05-13T03:03:45;95171.19;;;9.24
45976;BMP280;31696;42.668;23.322;2023-05-13T03:05:45;95172.97;;;9.29
45976;BMP280;31696;42.668;23.322;2023-05-13T03:07:46;95166.78;;;9.32
45976;BMP280;31696;42.668;23.322;2023-05-13T03:09:46;95165.78;;;9.35
45976;BMP280;31696;42.668;23.322;2023-05-13T03:11:47;95168.63;;;9.44
45976;BMP280;31696;42.668;23.322;2023-05-13T03:13:47;95176.41;;;9.44
45976;BMP280;31696;42.668;23.322;2023-05-13T03:15:47;95176.53;;;9.39
45976;BMP280;31696;42.668;23.322;2023-05-13T03:17:48;95172.97;;;9.29
45976;BMP280;31696;42.668;23.322;2023-05-13T03:19:48;95174.75;;;9.34
45976;BMP280;31696;42.668;23.322;2023-05-13T03:21:49;95179.69;;;9.45
45976;BMP280;31696;42.668;23.322;2023-05-13T03:23:50;95172.84;;;9.48
45976;BMP280;31696;42.668;23.322;2023-05-13T03:25:52;95164.94;;;9.53
45976;BMP280;31696;42.668;23.322;2023-05-13T03:27:53;95169.72;;;9.49
45976;BMP280;31696;42.668;23.322;2023-05-13T03:29:55;95176.78;;;9.48
45976;BMP280;31696;42.668;23.322;2023-05-13T03:31:57;95166.31;;;9.54
45976;BMP280;31696;42.668;23.322;2023-05-13T03:33:58;95180.53;;;9.40
45976;BMP280;31696;42.668;23.322;2023-05-13T03:35:59;95179.69;;;9.45
45976;BMP280;31696;42.668;23.322;2023-05-13T03:38:04;95181.50;;;9.50
45976;BMP280;31696;42.668;23.322;2023-05-13T03:40:06;95180.19;;;9.57
45976;BMP280;31696;42.668;23.322;2023-05-13T03:42:07;95185.75;;;9.61
45976;BMP280;31696;42.668;23.322;2023-05-13T03:44:09;95189.22;;;9.63
45976;BMP280;31696;42.668;23.322;2023-05-13T03:46:09;95195.38;;;9.73
45976;BMP280;31696;42.668;23.322;2023-05-13T03:48:10;95190.59;;;9.64
45976;BMP280;31696;42.668;23.322;2023-05-13T03:50:11;95185.22;;;9.62
45976;BMP280;31696;42.668;23.322;2023-05-13T03:52:16;95191.91;;;9.71
45976;BMP280;31696;42.668;23.322;2023-05-13T03:54:18;95203.19;;;9.60
45976;BMP280;31696;42.668;23.322;2023-05-13T03:56:19;95198.50;;;9.59
45976;BMP280;31696;42.668;23.322;2023-05-13T03:58:20;95201.81;;;9.59
45976;BMP280;31696;42.668;23.322;2023-05-13T04:00:21;95216.78;;;9.53
45976;BMP280;31696;42.668;23.322;2023-05-13T04:02:22;95209.19;;;9.68
45976;BMP280;31696;42.668;23.322;2023-05-13T04:04:23;95215.13;;;9.76
45976;BMP280;31696;42.668;23.322;2023-05-13T04:06:24;95212.84;;;9.73
45976;BMP280;31696;42.668;23.322;2023-05-13T04:08:24;95226.31;;;9.58
45976;BMP280;31696;42.668;23.322;2023-05-13T04:10:25;95223.53;;;9.69
45976;BMP280;31696;42.668;23.322;2023-05-13T04:12:25;95224.66;;;9.61
45976;BMP280;31696;42.668;23.322;2023-05-13T04:14:25;95222.94;;;9.63
45976;BMP280;31696;42.668;23.322;2023-05-13T04:16:26;95226.91;;;9.64
45976;BMP280;31696;42.668;23.322;2023-05-13T04:18:29;95231.44;;;9.51
45976;BMP280;31696;42.668;23.322;2023-05-13T04:20:30;95225.34;;;9.48
45976;BMP280;31696;42.668;23.322;2023-05-13T04:22:30;95227.53;;;9.57
45976;BMP280;31696;42.668;23.322;2023-05-13T04:24:30;95214.75;;;9.59
45976;BMP280;31696;42.668;23.322;2023-05-13T04:26:31;95230.47;;;9.74
45976;BMP280;31696;42.668;23.322;2023-05-13T04:28:32;95232.56;;;9.76
45976;BMP280;31696;42.668;23.322;2023-05-13T04:30:34;95236.44;;;9.82
45976;BMP280;31696;42.668;23.322;2023-05-13T04:32:35;95226.78;;;9.83
45976;BMP280;31696;42.668;23.322;2023-05-13T04:34:36;95231.25;;;9.82
45976;BMP280;31696;42.668;23.322;2023-05-13T04:36:36;95242.38;;;9.90
45976;BMP280;31696;42.668;23.322;2023-05-13T04:38:37;95239.00;;;9.95
45976;BMP280;31696;42.668;23.322;2023-05-13T04:40:38;95245.59;;;9.96
45976;BMP280;31696;42.668;23.322;2023-05-13T04:42:42;95247.97;;;9.94
45976;BMP280;31696;42.668;23.322;2023-05-13T04:44:43;95248.97;;;9.91
45976;BMP280;31696;42.668;23.322;2023-05-13T04:46:43;95255.00;;;10.07
45976;BMP280;31696;42.668;23.322;2023-05-13T04:48:44;95246.06;;;9.95
45976;BMP280;31696;42.668;23.322;2023-05-13T04:50:47;95252.16;;;9.97
45976;BMP280;31696;42.668;23.322;2023-05-13T04:52:48;95249.88;;;10.15
45976;BMP280;31696;42.668;23.322;2023-05-13T04:54:50;95248.81;;;10.10
45976;BMP280;31696;42.668;23.322;2023-05-13T04:56:50;95233.31;;;10.18
45976;BMP280;31696;42.668;23.322;2023-05-13T04:58:51;95232.94;;;10.34
45976;BMP280;31696;42.668;23.322;2023-05-13T05:00:51;95236.97;;;10.43
45976;BMP280;31696;42.668;23.322;2023-05-13T05:02:52;95228.88;;;10.26
45976;BMP280;31696;42.668;23.322;2023-05-13T05:04:53;95221.47;;;10.30
45976;BMP280;31696;42.668;23.322;2023-05-13T05:06:53;95218.19;;;10.29
45976;BMP280;31696;42.668;23.322;2023-05-13T05:08:53;95228.34;;;10.48
45976;BMP280;31696;42.668;23.322;2023-05-13T05:10:54;95225.13;;;10.55
45976;BMP280;31696;42.668;23.322;2023-05-13T05:12:56;95228.81;;;10.67
45976;BMP280;31696;42.668;23.322;2023-05-13T05:14:57;95235.47;;;10.76
45976;BMP280;31696;42.668;23.322;2023-05-13T05:16:57;95243.44;;;10.78
45976;BMP280;31696;42.668;23.322;2023-05-13T05:18:58;95237.06;;;10.86
45976;BMP280;31696;42.668;23.322;2023-05-13T05:20:59;95234.84;;;10.90
45976;BMP280;31696;42.668;23.322;2023-05-13T05:22:59;95230.84;;;10.89
45976;BMP280;31696;42.668;23.322;2023-05-13T05:25:01;95233.81;;;10.65
45976;BMP280;31696;42.668;23.322;2023-05-13T05:27:02;95237.97;;;10.96
45976;BMP280;31696;42.668;23.322;2023-05-13T05:29:03;95244.06;;;10.99
45976;BMP280;31696;42.668;23.322;2023-05-13T05:31:04;95231.84;;;11.15
45976;BMP280;31696;42.668;23.322;2023-05-13T05:33:05;95233.09;;;11.21
45976;BMP280;31696;42.668;23.322;2023-05-13T05:35:06;95221.84;;;11.26
45976;BMP280;31696;42.668;23.322;2023-05-13T05:37:07;95229.81;;;11.28
45976;BMP280;31696;42.668;23.322;2023-05-13T05:39:10;95238.78;;;11.20
45976;BMP280;31696;42.668;23.322;2023-05-13T05:41:10;95238.19;;;11.42
45976;BMP280;31696;42.668;23.322;2023-05-13T05:43:11;95242.19;;;11.58
45976;BMP280;31696;42.668;23.322;2023-05-13T05:45:11;95238.88;;;11.50
45976;BMP280;31696;42.668;23.322;2023-05-13T05:47:12;95223.34;;;11.14
45976;BMP280;31696;42.668;23.322;2023-05-13T05:49:12;95239.09;;;11.52
45976;BMP280;31696;42.668;23.322;2023-05-13T05:51:13;95233.91;;;11.67
45976;BMP280;31696;42.668;23.322;2023-05-13T05:53:13;95236.88;;;11.86
45976;BMP280;31696;42.668;23.322;2023-05-13T05:55:14;95243.81;;;11.76
45976;BMP280;31696;42.668;23.322;2023-05-13T05:57:15;95242.59;;;11.62
45976;BMP280;31696;42.668;23.322;2023-05-13T05:59:15;95245.69;;;11.68
45976;BMP280;31696;42.668;23.322;2023-05-13T06:01:16;95249.66;;;11.54
45976;BMP280;31696;42.668;23.322;2023-05-13T06:03:16;95252.41;;;11.48
45976;BMP280;31696;42.668;23.322;2023-05-13T06:05:16;95248.28;;;11.60
45976;BMP280;31696;42.668;23.322;2023-05-13T06:07:18;95254.19;;;11.61
45976;BMP280;31696;42.668;23.322;2023-05-13T06:09:18;95250.00;;;11.50
45976;BMP280;31696;42.668;23.322;2023-05-13T06:11:19;95246.56;;;11.63
45976;BMP280;31696;42.668;23.322;2023-05-13T06:13:19;95245.91;;;11.70
45976;BMP280;31696;42.668;23.322;2023-05-13T06:15:20;95242.97;;;11.96
45976;BMP280;31696;42.668;23.322;2023-05-13T06:17:20;95238.78;;;11.86
45976;BMP280;31696;42.668;23.322;2023-05-13T06:19:20;95250.97;;;11.83
45976;BMP280;31696;42.668;23.322;2023-05-13T06:21:21;95247.13;;;11.77
45976;BMP280;31696;42.668;23.322;2023-05-13T06:23:22;95250.03;;;11.73
45976;BMP280;31696;42.668;23.322;2023-05-13T06:25:24;95242.78;;;11.94
45976;BMP280;31696;42.668;23.322;2023-05-13T06:27:25;95244.38;;;11.97
45976;BMP280;31696;42.668;23.322;2023-05-13T06:29:25;95250.13;;;12.03
45976;BMP280;31696;42.668;23.322;2023-05-13T06:31:26;95249.38;;;11.95
45976;BMP280;31696;42.668;23.322;2023-05-13T06:33:26;95247.16;;;11.99
45976;BMP280;31696;42.668;23.322;2023-05-13T06:35:27;95249.38;;;11.95
45976;BMP280;31696;42.668;23.322;2023-05-13T06:37:27;95253.03;;;12.00
45976;BMP280;31696;42.668;23.322;2023-05-13T06:39:28;95247.16;;;11.99
45976;BMP280;31696;42.668;23.322;2023-05-13T06:41:29;95261.19;;;11.96
45976;BMP280;31696;42.668;23.322;2023-05-13T06:43:36;95260.53;;;12.03
45976;BMP280;31696;42.668;23.322;2023-05-13T06:45:46;95254.28;;;12.06
45976;BMP280;31696;42.668;23.322;2023-05-13T06:47:49;95252.19;;;11.97
45976;BMP280;31696;42.668;23.322;2023-05-13T06:49:49;95246.81;;;12.10
45976;BMP280;31696;42.668;23.322;2023-05-13T06:51:50;95252.22;;;12.28
45976;BMP280;31696;42.668;23.322;2023-05-13T06:53:50;95250.44;;;12.30
45976;BMP280;31696;42.668;23.322;2023-05-13T06:55:51;95249.44;;;12.33
45976;BMP280;31696;42.668;23.322;2023-05-13T06:57:51;95247.00;;;12.20
45976;BMP280;31696;42.668;23.322;2023-05-13T06:59:52;95250.81;;;12.27
45976;BMP280;31696;42.668;23.322;2023-05-13T07:01:52;95255.66;;;12.23
45976;BMP280;31696;42.668;23.322;2023-05-13T07:03:52;95252.03;;;12.26
45976;BMP280;31696;42.668;23.322;2023-05-13T07:05:53;95254.94;;;12.30
45976;BMP280;31696;42.668;23.322;2023-05-13T07:07:54;95257.06;;;12.24
45976;BMP280;31696;42.668;23.322;2023-05-13T07:09:55;95253.22;;;12.25
45976;BMP280;31696;42.668;23.322;2023-05-13T07:11:55;95265.38;;;12.30
45976;BMP280;31696;42.668;23.322;2023-05-13T07:13:55;95256.03;;;12.27
45976;BMP280;31696;42.668;23.322;2023-05-13T07:15:56;95269.38;;;12.61
45976;BMP280;31696;42.668;23.322;2023-05-13T07:17:56;95276.13;;;12.64
45976;BMP280;31696;42.668;23.322;2023-05-13T07:19:57;95271.81;;;12.59
45976;BMP280;31696;42.668;23.322;2023-05-13T07:21:57;95273.53;;;12.64
45976;BMP280;31696;42.668;23.322;2023-05-13T07:23:57;95273.19;;;12.60
45976;BMP280;31696;42.668;23.322;2023-05-13T07:25:58;95288.97;;;12.69
45976;BMP280;31696;42.668;23.322;2023-05-13T07:27:58;95288.63;;;12.73
45976;BMP280;31696;42.668;23.322;2023-05-13T07:29:58;95280.94;;;12.83
45976;BMP280;31696;42.668;23.322;2023-05-13T07:32:05;95283.41;;;12.73
45976;BMP280;31696;42.668;23.322;2023-05-13T07:34:05;95278.13;;;13.03
45976;BMP280;31696;42.668;23.322;2023-05-13T07:36:06;95282.81;;;13.05
45976;BMP280;31696;42.668;23.322;2023-05-13T07:38:07;95276.50;;;13.23
45976;BMP280;31696;42.668;23.322;2023-05-13T07:40:09;95273.81;;;13.46
45976;BMP280;31696;42.668;23.322;2023-05-13T07:42:09;95267.44;;;13.96
45976;BMP280;31696;42.668;23.322;2023-05-13T07:44:10;95262.31;;;14.06
45976;BMP280;31696;42.668;23.322;2023-05-13T07:46:12;95271.00;;;14.08
45976;BMP280;31696;42.668;23.322;2023-05-13T07:48:12;95270.25;;;14.15
45976;BMP280;31696;42.668;23.322;2023-05-13T07:50:13;95279.66;;;14.35
45976;BMP280;31696;42.668;23.322;2023-05-13T07:52:13;95274.66;;;14.05
45976;BMP280;31696;42.668;23.322;2023-05-13T07:54:13;95273.84;;;13.70
45976;BMP280;31696;42.668;23.322;2023-05-13T07:56:14;95276.69;;;13.57
45976;BMP280;31696;42.668;23.322;2023-05-13T07:58:14;95279.81;;;14.37
45976;BMP280;31696;42.668;23.322;2023-05-13T08:00:14;95273.22;;;14.71
45976;BMP280;31696;42.668;23.322;2023-05-13T08:02:15;95279.28;;;15.51
45976;BMP280;31696;42.668;23.322;2023-05-13T08:04:15;95276.34;;;16.29
45976;BMP280;31696;42.668;23.322;2023-05-13T08:06:16;95275.28;;;16.61
45976;BMP280;31696;42.668;23.322;2023-05-13T08:08:16;95272.38;;;16.95
45976;BMP280;31696;42.668;23.322;2023-05-13T08:10:17;95270.91;;;17.33
45976;BMP280;31696;42.668;23.322;2023-05-13T08:12:17;95271.19;;;17.68
45976;BMP280;31696;42.668;23.322;2023-05-13T08:14:18;95266.50;;;17.26
45976;BMP280;31696;42.668;23.322;2023-05-13T08:16:18;95257.59;;;17.81
45976;BMP280;31696;42.668;23.322;2023-05-13T08:18:18;95255.41;;;17.98
45976;BMP280;31696;42.668;23.322;2023-05-13T08:20:20;95261.50;;;18.22
45976;BMP280;31696;42.668;23.322;2023-05-13T08:22:22;95199.47;;;17.65
45976;BMP280;31696;42.668;23.322;2023-05-13T08:24:22;95262.06;;;17.38
45976;BMP280;31696;42.668;23.322;2023-05-13T08:26:22;95258.16;;;16.98
45976;BMP280;31696;42.668;23.322;2023-05-13T08:28:23;95264.66;;;17.78
45976;BMP280;31696;42.668;23.322;2023-05-13T08:30:25;95262.56;;;18.07
45976;BMP280;31696;42.668;23.322;2023-05-13T08:32:26;95259.06;;;18.36
45976;BMP280;31696;42.668;23.322;2023-05-13T08:34:26;95257.47;;;17.48
45976;BMP280;31696;42.668;23.322;2023-05-13T08:36:26;95243.25;;;16.82
45976;BMP280;31696;42.668;23.322;2023-05-13T08:38:27;95245.25;;;17.22
45976;BMP280;31696;42.668;23.322;2023-05-13T08:40:28;95584.28;;;18.04
45976;BMP280;31696;42.668;23.322;2023-05-13T08:42:28;95249.16;;;18.03
45976;BMP280;31696;42.668;23.322;2023-05-13T08:44:31;95247.94;;;18.58
45976;BMP280;31696;42.668;23.322;2023-05-13T08:46:31;95253.75;;;17.72
45976;BMP280;31696;42.668;23.322;2023-05-13T08:48:32;95250.94;;;17.09
45976;BMP280;31696;42.668;23.322;2023-05-13T08:50:33;95243.97;;;17.94
45976;BMP280;31696;42.668;23.322;2023-05-13T08:52:34;95243.03;;;17.89
45976;BMP280;31696;42.668;23.322;2023-05-13T08:54:34;95247.31;;;18.15
45976;BMP280;31696;42.668;23.322;2023-05-13T08:56:35;95241.88;;;18.56
45976;BMP280;31696;42.668;23.322;2023-05-13T08:58:36;95249.22;;;18.69
45976;BMP280;31696;42.668;23.322;2023-05-13T09:00:36;95237.75;;;18.97
45976;BMP280;31696;42.668;23.322;2023-05-13T09:02:37;95237.69;;;18.74
45976;BMP280;31696;42.668;23.322;2023-05-13T09:04:37;95222.91;;;18.57
45976;BMP280;31696;42.668;23.322;2023-05-13T09:06:38;95222.78;;;19.11
45976;BMP280;31696;42.668;23.322;2023-05-13T09:08:38;95216.59;;;19.18
45976;BMP280;31696;42.668;23.322;2023-05-13T09:10:39;95211.00;;;19.12
45976;BMP280;31696;42.668;23.322;2023-05-13T09:12:46;95220.50;;;19.17
45976;BMP280;31696;42.668;23.322;2023-05-13T09:14:47;95212.59;;;19.52
45976;BMP280;31696;42.668;23.322;2023-05-13T09:16:47;95214.06;;;19.55
45976;BMP280;31696;42.668;23.322;2023-05-13T09:18:47;95230.47;;;19.42
45976;BMP280;31696;42.668;23.322;2023-05-13T09:20:48;95212.09;;;19.67
45976;BMP280;31696;42.668;23.322;2023-05-13T09:24:52;95225.44;;;19.34
45976;BMP280;31696;42.668;23.322;2023-05-13T09:26:52;95217.19;;;19.28
45976;BMP280;31696;42.668;23.322;2023-05-13T09:31:11;95224.38;;;19.28
45976;BMP280;31696;42.668;23.322;2023-05-13T09:33:13;95219.53;;;18.78
45976;BMP280;31696;42.668;23.322;2023-05-13T09:35:14;95212.41;;;18.69
45976;BMP280;31696;42.668;23.322;2023-05-13T09:37:16;95211.22;;;18.49
45976;BMP280;31696;42.668;23.322;2023-05-13T09:39:17;95205.66;;;18.66
45976;BMP280;31696;42.668;23.322;2023-05-13T09:41:18;95212.75;;;18.09
45976;BMP280;31696;42.668;23.322;2023-05-13T09:43:19;95208.50;;;18.25
45976;BMP280;31696;42.668;23.322;2023-05-13T09:45:20;95211.69;;;18.57
45976;BMP280;31696;42.668;23.322;2023-05-13T09:47:22;95207.59;;;18.33
45976;BMP280;31696;42.668;23.322;2023-05-13T09:49:25;95197.84;;;18.45
45976;BMP280;31696;42.668;23.322;2023-05-13T09:51:25;95204.69;;;18.50
45976;BMP280;31696;42.668;23.322;2023-05-13T09:53:26;95203.41;;;18.39
45976;BMP280;31696;42.668;23.322;2023-05-13T09:55:27;95203.94;;;18.05
45976;BMP280;31696;42.668;23.322;2023-05-13T09:57:28;95199.88;;;17.92
45976;BMP280;31696;42.668;23.322;2023-05-13T09:59:31;95196.44;;;18.44
45976;BMP280;31696;42.668;23.322;2023-05-13T10:01:33;95197.91;;;18.35
45976;BMP280;31696;42.668;23.322;2023-05-13T10:03:33;95202.81;;;18.41
45976;BMP280;31696;42.668;23.322;2023-05-13T10:05:34;95202.47;;;18.35
45976;BMP280;31696;42.668;23.322;2023-05-13T10:07:35;95201.81;;;17.92
45976;BMP280;31696;42.668;23.322;2023-05-13T10:09:37;95202.94;;;17.89
45976;BMP280;31696;42.668;23.322;2023-05-13T10:11:38;95200.53;;;17.72
45976;BMP280;31696;42.668;23.322;2023-05-13T10:13:40;95209.72;;;17.61
45976;BMP280;31696;42.668;23.322;2023-05-13T10:15:48;95200.69;;;17.74
45976;BMP280;31696;42.668;23.322;2023-05-13T10:17:51;95200.25;;;17.46
45976;BMP280;31696;42.668;23.322;2023-05-13T10:19:52;95201.00;;;17.68
45976;BMP280;31696;42.668;23.322;2023-05-13T10:21:53;95215.75;;;17.73
45976;BMP280;31696;42.668;23.322;2023-05-13T10:23:56;95204.88;;;17.88
45976;BMP280;31696;42.668;23.322;2023-05-13T10:25:57;95203.16;;;17.72
45976;BMP280;31696;42.668;23.322;2023-05-13T10:27:57;95200.50;;;17.81
45976;BMP280;31696;42.668;23.322;2023-05-13T10:29:59;95206.94;;;17.90
45976;BMP280;31696;42.668;23.322;2023-05-13T10:32:00;95198.50;;;17.91
45976;BMP280;31696;42.668;23.322;2023-05-13T10:34:00;95193.25;;;17.91
45976;BMP280;31696;42.668;23.322;2023-05-13T10:42:50;95203.63;;;17.68
45976;BMP280;31696;42.668;23.322;2023-05-13T10:44:56;95198.88;;;17.55
45976;BMP280;31696;42.668;23.322;2023-05-13T10:46:57;95191.66;;;17.25
45976;BMP280;31696;42.668;23.322;2023-05-13T10:48:58;95202.72;;;17.54
45976;BMP280;31696;42.668;23.322;2023-05-13T10:51:02;95198.88;;;17.55
45976;BMP280;31696;42.668;23.322;2023-05-13T10:53:05;95201.84;;;17.61
45976;BMP280;31696;42.668;23.322;2023-05-13T10:55:08;95206.28;;;17.58
45976;BMP280;31696;42.668;23.322;2023-05-13T10:57:13;95195.59;;;17.66
45976;BMP280;31696;42.668;23.322;2023-05-13T10:59:14;95201.22;;;17.72
45976;BMP280;31696;42.668;23.322;2023-05-13T11:01:19;95202.88;;;17.77
45976;BMP280;31696;42.668;23.322;2023-05-13T11:03:27;95191.47;;;17.63
45976;BMP280;31696;42.668;23.322;2023-05-13T11:05:28;95204.25;;;17.99
45976;BMP280;31696;42.668;23.322;2023-05-13T11:07:29;95198.88;;;17.76
45976;BMP280;31696;42.668;23.322;2023-05-13T11:09:29;95192.41;;;17.68
45976;BMP280;31696;42.668;23.322;2023-05-13T11:11:31;95189.28;;;17.29
45976;BMP280;31696;42.668;23.322;2023-05-13T11:13:35;95192.88;;;17.64
45976;BMP280;31696;42.668;23.322;2023-05-13T11:15:43;95188.38;;;17.97
45976;BMP280;31696;42.668;23.322;2023-05-13T11:17:44;95185.31;;;18.12
45976;BMP280;31696;42.668;23.322;2023-05-13T11:19:45;95181.06;;;18.17
45976;BMP280;31696;42.668;23.322;2023-05-13T11:21:49;95180.16;;;17.60
45976;BMP280;31696;42.668;23.322;2023-05-13T11:23:55;95172.63;;;17.76
45976;BMP280;31696;42.668;23.322;2023-05-13T11:26:09;95174.59;;;18.08
45976;BMP280;31696;42.668;23.322;2023-05-13T11:28:13;95172.09;;;17.89
45976;BMP280;31696;42.668;23.322;2023-05-13T11:30:21;95173.09;;;18.05
45976;BMP280;31696;42.668;23.322;2023-05-13T11:34:49;95160.09;;;18.07
45976;BMP280;31696;42.668;23.322;2023-05-13T11:37:10;95153.00;;;18.31
45976;BMP280;31696;42.668;23.322;2023-05-13T11:39:11;95147.97;;;18.35
45976;BMP280;31696;42.668;23.322;2023-05-13T11:41:12;95138.84;;;18.15
45976;BMP280;31696;42.668;23.322;2023-05-13T11:43:16;95137.63;;;18.16
45976;BMP280;31696;42.668;23.322;2023-05-13T11:45:18;95140.25;;;18.27
45976;BMP280;31696;42.668;23.322;2023-05-13T11:47:25;95152.31;;;18.42
45976;BMP280;31696;42.668;23.322;2023-05-13T11:51:36;95142.25;;;18.50
45976;BMP280;31696;42.668;23.322;2023-05-13T11:53:36;95146.06;;;18.59